Time;durP1;ratioP1;P1;durP2;ratioP2;P2;SDS_P1;SDS_P2;PMS_P1;PMS_P2;Temp;Humidity;BMP_temperature;BMP_pressure;BME280_temperature;BME280_humidity;BME280_pressure;Samples;Min_cycle;Max_cycle;Signal;HPM_P1;HPM_P2
2022/07/22 00:01:55;;;;;;;2.60;2.40;;;25.50;51.90;;;;;;5010634;28;20469;-69
2022/07/22 00:04:23;;;;;;;2.20;2.10;;;25.60;52.00;;;;;;5009712;28;20499;-69
2022/07/22 00:06:51;;;;;;;2.90;2.60;;;25.50;52.00;;;;;;5010213;28;20464;-69
2022/07/22 00:09:19;;;;;;;2.20;2.00;;;25.50;51.90;;;;;;5011366;28;20461;-69
2022/07/22 00:11:49;;;;;;;3.83;2.67;;;25.50;52.10;;;;;;5010252;28;20527;-69
2022/07/22 00:14:17;;;;;;;3.73;2.73;;;25.50;51.90;;;;;;5008554;28;20860;-69
2022/07/22 00:16:45;;;;;;;2.20;2.00;;;25.50;51.90;;;;;;5010595;28;20468;-68
2022/07/22 00:19:13;;;;;;;2.57;2.37;;;25.50;52.00;;;;;;5005151;28;20461;-69
2022/07/22 00:21:41;;;;;;;2.43;2.23;;;25.50;51.90;;;;;;5011981;28;20457;-68
2022/07/22 00:24:09;;;;;;;2.20;2.00;;;25.40;51.90;;;;;;5014539;28;20441;-69
2022/07/22 00:26:37;;;;;;;4.00;2.40;;;25.50;52.00;;;;;;5013912;28;20940;-69
2022/07/22 00:29:07;;;;;;;2.20;2.00;;;25.50;52.00;;;;;;5012732;28;20464;-69
2022/07/22 00:31:35;;;;;;;2.83;2.53;;;25.40;51.80;;;;;;5014078;28;20464;-69
2022/07/22 00:34:04;;;;;;;2.00;1.90;;;25.50;52.00;;;;;;5012435;28;20437;-69
2022/07/22 00:36:32;;;;;;;4.33;1.97;;;25.50;52.00;;;;;;5012789;28;20473;-69
2022/07/22 00:39:04;;;;;;;2.00;1.90;;;25.50;52.10;;;;;;5013442;28;20881;-69
2022/07/22 00:41:32;;;;;;;2.10;2.00;;;25.50;52.00;;;;;;5001185;28;20472;-68
2022/07/22 00:44:07;;;;;;;2.20;2.00;;;25.40;51.90;;;;;;5005325;28;20445;-69
2022/07/22 00:46:38;;;;;;;2.37;2.17;;;25.40;52.00;;;;;;5012682;28;20563;-69
2022/07/22 00:49:08;;;;;;;2.20;2.00;;;25.40;52.00;;;;;;5014034;28;20457;-69
2022/07/22 00:51:39;;;;;;;2.47;2.27;;;25.40;51.80;;;;;;5011906;28;20522;-69
2022/07/22 00:54:07;;;;;;;2.00;1.90;;;25.40;51.90;;;;;;5013997;28;20497;-69
2022/07/22 00:56:36;;;;;;;2.20;2.10;;;25.40;52.00;;;;;;5013182;28;21014;-69
2022/07/22 00:59:09;;;;;;;2.33;2.13;;;25.40;52.00;;;;;;5013028;28;20460;-69
2022/07/22 01:01:37;;;;;;;2.20;2.10;;;25.40;52.00;;;;;;5004988;28;20465;-68
2022/07/22 01:04:06;;;;;;;3.03;1.83;;;25.40;52.00;;;;;;5013479;28;20433;-69
2022/07/22 01:06:35;;;;;;;2.37;2.17;;;25.40;52.00;;;;;;5002607;28;20457;-69
2022/07/22 01:09:04;;;;;;;1.97;1.87;;;25.40;52.00;;;;;;5027546;28;20468;-68
2022/07/22 01:11:32;;;;;;;2.50;2.30;;;25.30;52.00;;;;;;5011246;28;21016;-69
2022/07/22 01:14:00;;;;;;;2.00;1.87;;;25.30;52.00;;;;;;5012481;28;20452;-69
2022/07/22 01:16:29;;;;;;;2.47;2.27;;;25.30;51.90;;;;;;5012117;28;20473;-68
2022/07/22 01:18:58;;;;;;;1.83;1.70;;;25.40;52.10;;;;;;5006428;28;20544;-69
2022/07/22 01:21:28;;;;;;;2.27;2.07;;;25.40;52.10;;;;;;5011895;28;20535;-69
2022/07/22 01:23:56;;;;;;;2.13;2.00;;;25.30;52.00;;;;;;5012208;28;20457;-69
2022/07/22 01:26:25;;;;;;;2.67;2.47;;;25.30;52.10;;;;;;5011367;28;20476;-69
2022/07/22 01:28:54;;;;;;;2.40;2.20;;;25.30;52.00;;;;;;5012222;28;20459;-68
2022/07/22 01:31:22;;;;;;;2.33;2.13;;;25.30;52.10;;;;;;5011537;28;20468;-69
2022/07/22 01:33:51;;;;;;;2.97;2.57;;;25.30;52.00;;;;;;5011711;28;20437;-69
2022/07/22 01:36:19;;;;;;;2.37;2.17;;;25.30;51.90;;;;;;5011464;28;20500;-68
2022/07/22 01:38:49;;;;;;;2.43;1.87;;;25.30;52.00;;;;;;5013302;28;20460;-68
2022/07/22 01:41:18;;;;;;;2.17;2.00;;;25.20;52.00;;;;;;5011397;28;20492;-68
2022/07/22 01:43:46;;;;;;;1.87;1.77;;;25.30;52.00;;;;;;5011801;28;20453;-68
2022/07/22 01:46:16;;;;;;;2.10;2.00;;;25.30;52.10;;;;;;5010239;28;20469;-69
2022/07/22 01:48:45;;;;;;;2.23;2.07;;;25.30;52.10;;;;;;5011665;28;20457;-69
2022/07/22 01:51:13;;;;;;;2.07;1.80;;;25.20;52.00;;;;;;5009618;28;20527;-69
2022/07/22 01:53:41;;;;;;;1.80;1.70;;;25.20;52.00;;;;;;5011957;28;20437;-68
2022/07/22 01:56:11;;;;;;;2.13;1.90;;;25.20;52.00;;;;;;5012366;28;20464;-69
2022/07/22 01:58:48;;;;;;;3.10;2.43;;;25.20;52.10;;;;;;5039417;22;20488;-48
2022/07/22 02:01:21;;;;;;;2.10;2.00;;;25.20;52.00;;;;;;5039623;28;20464;-48
2022/07/22 02:03:49;;;;;;;2.20;2.00;;;25.20;53.20;;;;;;5022454;28;20809;-48
2022/07/22 02:06:18;;;;;;;2.30;2.10;;;25.20;52.00;;;;;;5042156;28;20475;-48
2022/07/22 02:08:46;;;;;;;1.83;1.73;;;25.20;52.00;;;;;;5036888;28;20445;-47
2022/07/22 02:11:18;;;;;;;2.03;1.83;;;25.20;52.10;;;;;;5024557;28;20901;-47
2022/07/22 02:14:04;;;;;;;1.80;1.70;;;25.20;52.10;;;;;;5035383;28;20535;-47
2022/07/22 02:16:34;;;;;;;2.23;1.97;;;25.20;52.00;;;;;;5034984;28;21041;-47
2022/07/22 02:19:06;;;;;;;2.63;2.43;;;25.10;52.00;;;;;;5051259;28;20772;-47
2022/07/22 02:21:34;;;;;;;2.27;2.03;;;25.10;52.00;;;;;;5037213;28;20467;-46
2022/07/22 02:24:02;;;;;;;2.30;2.10;;;25.20;52.00;;;;;;5006421;28;20435;-48
2022/07/22 02:26:32;;;;;;;2.10;2.00;;;25.10;52.00;;;;;;5061329;28;20491;-47
2022/07/22 02:29:00;;;;;;;2.10;1.97;;;25.10;52.00;;;;;;5024108;28;20448;-47
2022/07/22 02:31:29;;;;;;;1.80;1.70;;;25.10;52.00;;;;;;5029259;28;20480;-48
2022/07/22 02:33:58;;;;;;;1.90;1.80;;;25.10;52.00;;;;;;5049678;28;20807;-48
2022/07/22 02:36:29;;;;;;;1.87;1.77;;;25.10;52.00;;;;;;5051721;28;20462;-46
2022/07/22 02:38:58;;;;;;;3.13;2.17;;;25.10;52.00;;;;;;5041878;28;20795;-47
2022/07/22 02:41:29;;;;;;;2.03;1.63;;;25.10;52.10;;;;;;5028314;28;20472;-47
2022/07/22 02:44:00;;;;;;;2.00;1.90;;;25.10;51.90;;;;;;5035332;28;20435;-46
2022/07/22 02:46:29;;;;;;;2.07;1.90;;;25.10;52.00;;;;;;5040001;28;20476;-49
2022/07/22 02:49:05;;;;;;;2.10;2.00;;;25.10;52.10;;;;;;5042205;28;20441;-48
2022/07/22 02:51:33;;;;;;;1.70;1.60;;;25.10;52.10;;;;;;5043491;28;20563;-48
2022/07/22 02:54:01;;;;;;;2.00;1.90;;;25.10;52.10;;;;;;5027213;28;20446;-46
2022/07/22 02:56:29;;;;;;;1.70;1.60;;;25.10;52.10;;;;;;5043592;28;20471;-45
2022/07/22 02:58:59;;;;;;;2.17;1.97;;;25.10;52.10;;;;;;5042620;28;21021;-47
2022/07/22 03:01:28;;;;;;;2.10;1.90;;;25.00;52.00;;;;;;5029075;28;20526;-48
2022/07/22 03:04:00;;;;;;;2.73;2.03;;;25.10;52.00;;;;;;5023264;28;20993;-47
2022/07/22 03:06:31;;;;;;;2.50;1.63;;;25.10;51.90;;;;;;5046294;28;20474;-47
2022/07/22 03:09:11;;;;;;;2.97;2.00;;;25.10;52.10;;;;;;5051472;28;20436;-48
2022/07/22 03:11:43;;;;;;;1.83;1.73;;;25.00;52.10;;;;;;5033247;28;20476;-47
2022/07/22 03:14:14;;;;;;;1.70;1.60;;;25.00;52.10;;;;;;5027413;28;20733;-47
2022/07/22 03:16:42;;;;;;;1.67;1.57;;;25.00;52.10;;;;;;5019995;28;20542;-48
2022/07/22 03:19:10;;;;;;;2.20;1.80;;;25.00;52.10;;;;;;5049736;28;20481;-47
2022/07/22 03:21:39;;;;;;;2.53;2.00;;;25.00;52.10;;;;;;5038054;28;20498;-47
2022/07/22 03:24:08;;;;;;;2.00;1.90;;;25.00;52.10;;;;;;5027075;28;20439;-47
2022/07/22 03:26:36;;;;;;;2.20;1.63;;;25.00;52.10;;;;;;5025391;28;20508;-47
2022/07/22 03:29:07;;;;;;;2.30;2.10;;;24.90;52.00;;;;;;5022508;28;20838;-47
2022/07/22 03:31:37;;;;;;;1.70;1.60;;;25.00;52.10;;;;;;5029972;28;20898;-45
2022/07/22 03:34:06;;;;;;;2.27;2.07;;;25.00;52.10;;;;;;5027851;28;20444;-47
2022/07/22 03:36:38;;;;;;;1.70;1.30;;;24.90;52.00;;;;;;5038410;28;20738;-48
2022/07/22 03:39:08;;;;;;;2.33;1.77;;;25.00;52.10;;;;;;5044253;28;20444;-46
2022/07/22 03:41:36;;;;;;;2.03;1.77;;;24.90;52.00;;;;;;5030906;28;20852;-47
2022/07/22 03:44:05;;;;;;;1.90;1.53;;;24.90;52.00;;;;;;5025294;28;20493;-47
2022/07/22 03:46:33;;;;;;;2.20;1.97;;;24.90;52.00;;;;;;5060025;28;20467;-46
2022/07/22 03:49:03;;;;;;;1.80;1.70;;;24.90;52.10;;;;;;5032839;28;20438;-48
2022/07/22 03:51:31;;;;;;;1.50;1.40;;;24.90;52.10;;;;;;5042731;28;20978;-48
2022/07/22 03:54:02;;;;;;;2.20;2.10;;;24.90;52.10;;;;;;5032541;28;20443;-47
2022/07/22 03:56:30;;;;;;;1.77;1.67;;;24.90;53.30;;;;;;5048070;28;20495;-47
2022/07/22 03:58:59;;;;;;;2.47;1.97;;;24.90;52.10;;;;;;5042709;28;20446;-47
2022/07/22 04:01:27;;;;;;;1.57;1.47;;;24.90;52.20;;;;;;5028808;28;20471;-47
2022/07/22 04:03:56;;;;;;;1.70;1.60;;;24.90;52.20;;;;;;5059142;28;20481;-46
2022/07/22 04:06:37;;;;;;;2.70;1.93;;;24.90;52.30;;;;;;5033126;28;20486;-48
2022/07/22 04:09:16;;;;;;;2.27;2.07;;;24.90;52.20;;;;;;5040303;28;20444;-46
2022/07/22 04:11:44;;;;;;;1.63;1.53;;;24.90;52.20;;;;;;5035206;28;20519;-48
2022/07/22 04:14:13;;;;;;;2.10;1.90;;;24.80;52.10;;;;;;5023476;28;20862;-47
2022/07/22 04:16:45;;;;;;;1.93;1.70;;;24.80;52.20;;;;;;5044871;28;20503;-46
2022/07/22 04:19:14;;;;;;;2.43;2.23;;;24.90;52.20;;;;;;5053428;28;20445;-47
2022/07/22 04:21:55;;;;;;;2.23;2.03;;;24.90;52.30;;;;;;5044538;28;20519;-47
2022/07/22 04:24:27;;;;;;;1.90;1.80;;;24.90;52.20;;;;;;5044921;28;20447;-48
2022/07/22 04:26:56;;;;;;;2.10;1.93;;;24.80;52.20;;;;;;5023732;28;20538;-47
2022/07/22 04:29:25;;;;;;;2.40;1.70;;;24.80;52.20;;;;;;5051193;28;21008;-46
2022/07/22 04:31:54;;;;;;;2.10;1.80;;;24.80;52.30;;;;;;5035285;28;20471;-47
2022/07/22 04:34:29;;;;;;;2.17;1.73;;;24.80;52.20;;;;;;5041243;28;20431;-47
2022/07/22 04:37:02;;;;;;;2.47;1.93;;;24.80;52.20;;;;;;5027766;28;20532;-48
2022/07/22 04:39:36;;;;;;;1.93;1.83;;;24.80;52.30;;;;;;5036265;28;20454;-46
2022/07/22 04:42:06;;;;;;;2.23;2.10;;;24.80;52.30;;;;;;5026737;28;20547;-48
2022/07/22 04:44:35;;;;;;;2.00;1.80;;;24.80;52.20;;;;;;5040004;28;21026;-47
2022/07/22 04:47:04;;;;;;;1.80;1.70;;;24.80;52.20;;;;;;5023914;28;20476;-46
2022/07/22 04:49:37;;;;;;;2.70;1.80;;;24.80;52.30;;;;;;5057533;28;20914;-47
2022/07/22 04:52:09;;;;;;;1.70;1.60;;;24.80;52.30;;;;;;5040001;28;20459;-48
2022/07/22 04:54:45;;;;;;;2.50;2.30;;;24.80;52.30;;;;;;5045991;28;20851;-47
2022/07/22 04:57:13;;;;;;;1.93;1.73;;;24.70;52.20;;;;;;5034810;28;20501;-48
2022/07/22 04:59:42;;;;;;;1.60;1.50;;;24.70;52.30;;;;;;5043400;28;20451;-46
2022/07/22 05:02:10;;;;;;;1.87;1.77;;;24.70;52.30;;;;;;5033014;28;20480;-48
2022/07/22 05:04:41;;;;;;;1.83;1.73;;;24.70;52.20;;;;;;5033057;28;20828;-47
2022/07/22 05:07:10;;;;;;;2.20;2.00;;;24.70;52.20;;;;;;5026051;28;20468;-46
2022/07/22 05:09:38;;;;;;;1.50;1.40;;;24.70;52.20;;;;;;5023048;28;20436;-46
2022/07/22 05:12:10;;;;;;;1.70;1.60;;;24.70;52.20;;;;;;5018785;28;20558;-45
2022/07/22 05:14:39;;;;;;;1.67;1.57;;;24.70;52.20;;;;;;5058045;28;20447;-46
2022/07/22 05:17:11;;;;;;;2.10;2.00;;;24.70;52.30;;;;;;5039471;28;21237;-47
2022/07/22 05:19:53;;;;;;;1.73;1.63;;;24.70;52.30;;;;;;5026734;28;20448;-46
2022/07/22 05:22:23;;;;;;;2.00;1.80;;;24.70;52.30;;;;;;5032492;28;20467;-46
2022/07/22 05:24:53;;;;;;;1.63;1.53;;;24.70;52.30;;;;;;5033961;28;20543;-47
2022/07/22 05:27:21;;;;;;;1.73;1.63;;;24.70;52.30;;;;;;5025220;28;20850;-47
2022/07/22 05:29:49;;;;;;;1.67;1.57;;;24.60;52.20;;;;;;5039176;28;20432;-46
2022/07/22 05:32:18;;;;;;;1.67;1.50;;;24.60;52.20;;;;;;5028187;28;20915;-47
2022/07/22 05:34:48;;;;;;;1.60;1.50;;;24.70;52.40;;;;;;5028380;28;20506;-46
2022/07/22 05:37:16;;;;;;;2.20;1.70;;;24.60;52.20;;;;;;5058193;28;20990;-48
2022/07/22 05:39:46;;;;;;;1.60;1.50;;;24.60;52.20;;;;;;5030083;28;20468;-47
2022/07/22 05:42:15;;;;;;;1.70;1.60;;;24.60;52.30;;;;;;5031196;28;20997;-48
2022/07/22 05:44:43;;;;;;;2.03;1.80;;;24.60;52.30;;;;;;5029750;28;20444;-46
2022/07/22 05:47:12;;;;;;;1.80;1.70;;;24.60;52.40;;;;;;5040525;28;20483;-47
2022/07/22 05:49:41;;;;;;;1.70;1.60;;;24.60;52.30;;;;;;5033210;28;20755;-48
2022/07/22 05:52:13;;;;;;;1.60;1.50;;;24.60;52.30;;;;;;5023021;28;21136;-47
2022/07/22 05:54:42;;;;;;;1.77;1.60;;;24.60;52.30;;;;;;5046954;28;20502;-47
2022/07/22 05:57:12;;;;;;;1.70;1.57;;;24.60;52.30;;;;;;5044073;28;20479;-47
2022/07/22 05:59:41;;;;;;;1.67;1.57;;;24.60;52.10;;;;;;5044234;28;20952;-47
2022/07/22 06:02:09;;;;;;;1.60;1.50;;;24.60;52.20;;;;;;5045153;28;20463;-47
2022/07/22 06:04:47;;;;;;;1.70;1.60;;;24.50;52.20;;;;;;5029736;28;20441;-46
2022/07/22 06:07:18;;;;;;;2.37;1.60;;;24.60;52.20;;;;;;5049583;28;21091;-47
2022/07/22 06:09:51;;;;;;;2.13;1.40;;;24.60;52.20;;;;;;5031532;28;20515;-49
2022/07/22 06:12:21;;;;;;;1.80;1.70;;;24.50;52.10;;;;;;5047327;28;20459;-47
2022/07/22 06:14:50;;;;;;;1.70;1.60;;;24.50;52.10;;;;;;5016011;28;20448;-47
2022/07/22 06:17:20;;;;;;;1.83;1.67;;;24.50;52.10;;;;;;5024902;28;20471;-47
2022/07/22 06:19:49;;;;;;;1.83;1.73;;;24.50;52.10;;;;;;5052059;28;21301;-48
2022/07/22 06:22:18;;;;;;;2.07;1.87;;;24.50;53.40;;;;;;5043896;28;20939;-46
2022/07/22 06:24:47;;;;;;;1.90;1.80;;;24.50;52.10;;;;;;5053756;28;20497;-47
2022/07/22 06:27:16;;;;;;;2.03;1.93;;;24.50;52.10;;;;;;5053608;28;20463;-47
2022/07/22 06:29:49;;;;;;;1.90;1.80;;;24.50;52.20;;;;;;5025593;28;20812;-48
2022/07/22 06:32:17;;;;;;;1.90;1.80;;;24.50;52.10;;;;;;5044171;28;20455;-47
2022/07/22 06:34:49;;;;;;;1.90;1.80;;;24.50;52.20;;;;;;5027964;28;20952;-47
2022/07/22 06:37:17;;;;;;;3.00;1.40;;;24.50;52.30;;;;;;5024275;28;20463;-47
2022/07/22 06:39:56;;;;;;;2.13;2.03;;;24.50;52.20;;;;;;5054462;28;20450;-48
2022/07/22 06:42:43;;;;;;;1.80;1.70;;;24.50;52.30;;;;;;5071454;28;20815;-47
2022/07/22 06:45:27;;;;;;;2.27;2.07;;;24.50;52.40;;;;;;5065733;28;20456;-48
2022/07/22 06:48:25;;;;;;;2.10;1.97;;;24.50;52.30;;;;;;5030348;28;20455;-47
2022/07/22 06:50:54;;;;;;;2.00;1.90;;;24.40;52.20;;;;;;5042988;28;20459;-47
2022/07/22 06:53:22;;;;;;;2.20;2.00;;;24.50;52.30;;;;;;5041570;28;20432;-47
2022/07/22 06:55:53;;;;;;;5.77;4.10;;;24.50;52.20;;;;;;5041643;28;20846;-48
2022/07/22 06:58:21;;;;;;;6.03;4.63;;;24.40;51.80;;;;;;5036402;28;20603;-47
2022/07/22 07:00:54;;;;;;;4.83;3.60;;;24.40;51.80;;;;;;5044662;28;20463;-48
2022/07/22 07:03:33;;;;;;;4.70;4.30;;;24.30;51.80;;;;;;5064125;28;20468;-46
2022/07/22 07:06:10;;;;;;;5.93;4.80;;;24.30;51.80;;;;;;5041624;28;20484;-47
2022/07/22 07:08:58;;;;;;;5.37;4.83;;;24.30;51.70;;;;;;5041315;28;20475;-47
2022/07/22 07:11:29;;;;;;;5.70;4.87;;;24.30;51.70;;;;;;5048666;28;20468;-48
2022/07/22 07:13:59;;;;;;;7.20;5.30;;;24.30;51.70;;;;;;5028395;28;20470;-47
2022/07/22 07:16:29;;;;;;;5.90;5.40;;;24.30;51.70;;;;;;5048062;28;20997;-48
2022/07/22 07:18:57;;;;;;;6.63;5.57;;;24.30;51.60;;;;;;5057598;28;20975;-48
2022/07/22 07:21:28;;;;;;;5.37;4.60;;;24.30;51.60;;;;;;5060805;28;20532;-48
2022/07/22 07:24:01;;;;;;;6.60;5.13;;;24.30;51.60;;;;;;5049378;28;20455;-46
2022/07/22 07:26:29;;;;;;;5.57;4.80;;;24.30;51.70;;;;;;5053336;28;20482;-47
2022/07/22 07:28:57;;;;;;;5.47;4.63;;;24.20;51.70;;;;;;5052332;28;20439;-48
2022/07/22 07:31:38;;;;;;;5.73;5.10;;;24.30;51.80;;;;;;5049781;28;20504;-47
2022/07/22 07:34:13;;;;;;;4.87;4.40;;;24.30;51.80;;;;;;5044871;28;20430;-46
2022/07/22 07:36:41;;;;;;;4.90;4.33;;;24.20;51.70;;;;;;5048813;28;20470;-47
2022/07/22 07:39:12;;;;;;;6.10;4.23;;;24.20;52.90;;;;;;5081338;28;21007;-47
2022/07/22 07:41:41;;;;;;;4.80;4.30;;;24.20;51.80;;;;;;5070533;28;20474;-48
2022/07/22 07:44:12;;;;;;;6.43;5.80;;;24.20;51.80;;;;;;5048988;28;20487;-47
2022/07/22 07:46:43;;;;;;;6.87;4.67;;;24.20;51.90;;;;;;5042140;28;20985;-47
2022/07/22 07:49:12;;;;;;;5.00;4.50;;;24.20;52.00;;;;;;5050409;28;20854;-47
2022/07/22 07:51:41;;;;;;;4.90;4.40;;;24.20;52.00;;;;;;5044213;28;20536;-48
2022/07/22 07:54:11;;;;;;;4.40;4.00;;;24.10;52.00;;;;;;5049356;28;20427;-47
2022/07/22 07:56:44;;;;;;;6.90;5.27;;;24.10;52.00;;;;;;5065963;28;20470;-47
2022/07/22 07:59:13;;;;;;;6.10;5.07;;;24.10;52.00;;;;;;5041326;28;20505;-48
2022/07/22 08:01:58;;;;;;;6.23;5.10;;;24.10;52.00;;;;;;5057595;28;20479;-46
2022/07/22 08:07:25;;;;;;;8.60;5.83;;;24.10;52.10;;;;;;5023516;28;20508;-46
2022/07/22 08:09:55;;;;;;;7.20;6.50;;;24.00;52.00;;;;;;5030334;28;20441;-47
2022/07/22 08:12:59;;;;;;;8.20;5.30;;;24.10;52.10;;;;;;5008533;28;20464;-48
2022/07/22 08:15:49;;;;;;;8.68;6.68;;;24.10;52.20;;;;;;5023111;28;21092;-47
2022/07/22 08:18:24;;;;;;;7.90;5.77;;;24.10;53.00;;;;;;5031685;28;20208;-48
2022/07/22 08:20:52;;;;;;;7.37;5.27;;;24.00;53.00;;;;;;5028602;28;20459;-47
2022/07/22 08:23:28;;;;;;;7.90;6.03;;;24.00;53.00;;;;;;5031556;28;20601;-47
2022/07/22 08:25:57;;;;;;;6.70;5.30;;;24.00;52.70;;;;;;5029752;28;21058;-47
2022/07/22 08:28:27;;;;;;;5.73;5.07;;;24.10;52.80;;;;;;5032040;28;20451;-48
2022/07/22 08:30:56;;;;;;;6.40;5.30;;;24.10;52.70;;;;;;5030486;28;20460;-47
2022/07/22 08:33:26;;;;;;;7.33;6.17;;;24.10;52.60;;;;;;5032629;28;20493;-47
2022/07/22 08:35:55;;;;;;;5.07;4.37;;;24.10;53.70;;;;;;5027562;28;21004;-48
2022/07/22 08:38:23;;;;;;;5.67;5.17;;;24.10;52.40;;;;;;5031729;28;20706;-48
2022/07/22 08:40:55;;;;;;;6.20;4.97;;;24.10;52.40;;;;;;5030782;28;20820;-47
2022/07/22 08:43:34;;;;;;;6.40;5.70;;;24.10;52.40;;;;;;5026235;28;20530;-46
2022/07/22 08:46:03;;;;;;;7.50;6.40;;;24.10;52.40;;;;;;5023237;28;20460;-48
2022/07/22 08:48:47;;;;;;;5.00;4.50;;;24.10;52.40;;;;;;5031138;28;20450;-47
2022/07/22 08:51:35;;;;;;;7.37;5.30;;;24.10;52.30;;;;;;5027499;28;20467;-48
2022/07/22 08:54:19;;;;;;;5.67;5.17;;;24.10;52.30;;;;;;5031115;28;20969;-48
2022/07/22 08:56:49;;;;;;;5.80;5.30;;;24.10;52.20;;;;;;5030466;28;20987;-47
2022/07/22 08:59:17;;;;;;;7.17;5.57;;;24.10;52.20;;;;;;5029332;28;20824;-47
2022/07/22 09:02:03;;;;;;;5.77;5.17;;;24.10;52.20;;;;;;5027513;28;20464;-48
2022/07/22 09:04:52;;;;;;;6.93;6.27;;;24.10;52.30;;;;;;5028111;28;20510;-49
2022/07/22 09:07:29;;;;;;;6.33;5.53;;;24.10;52.20;;;;;;5024707;28;20870;-47
2022/07/22 09:10:05;;;;;;;5.33;4.67;;;24.10;52.00;;;;;;5007758;28;20440;-48
2022/07/22 09:12:55;;;;;;;6.73;4.87;;;24.10;52.10;;;;;;5031707;28;20446;-48
2022/07/22 09:15:48;;;;;;;4.57;4.13;;;24.00;52.00;;;;;;5029075;28;20444;-48
2022/07/22 09:18:46;;;;;;;5.77;5.17;;;24.10;52.10;;;;;;5032560;28;20460;-47
2022/07/22 09:21:35;;;;;;;5.27;4.80;;;24.10;53.30;;;;;;5018347;28;20494;-48
2022/07/22 09:24:31;;;;;;;7.27;6.57;;;24.00;51.90;;;;;;5026186;28;20486;-47
2022/07/22 09:27:24;;;;;;;5.93;5.43;;;24.00;51.80;;;;;;5025662;28;20486;-47
2022/07/22 09:30:21;;;;;;;6.40;4.90;;;24.00;52.00;;;;;;5025487;28;20447;-47
2022/07/22 09:32:56;;;;;;;5.50;5.00;;;24.00;52.10;;;;;;5030042;28;20468;-48
2022/07/22 09:35:44;;;;;;;7.07;5.10;;;24.00;52.10;;;;;;5027447;28;20531;-49
2022/07/22 09:38:29;;;;;;;6.30;4.53;;;24.00;52.20;;;;;;5030656;28;20456;-48
2022/07/22 09:41:00;;;;;;;9.63;5.60;;;24.00;52.20;;;;;;5029731;28;20466;-48
2022/07/22 09:43:34;;;;;;;5.57;4.87;;;24.00;52.30;;;;;;5027621;28;20519;-48
2022/07/22 09:46:04;;;;;;;5.87;5.20;;;24.00;52.30;;;;;;5021061;28;20464;-47
2022/07/22 09:48:55;;;;;;;6.00;5.03;;;24.00;52.30;;;;;;5031116;28;20551;-48
2022/07/22 09:51:42;;;;;;;5.20;4.50;;;24.00;52.30;;;;;;5028067;28;20462;-51
2022/07/22 09:54:13;;;;;;;6.93;5.00;;;24.00;52.30;;;;;;5023199;28;20482;-48
2022/07/22 09:56:41;;;;;;;9.77;7.60;;;24.00;52.30;;;;;;5020829;28;21026;-48
2022/07/22 09:59:13;;;;;;;9.27;7.30;;;24.00;52.40;;;;;;5020949;28;20449;-48
2022/07/22 10:01:46;;;;;;;9.13;7.57;;;24.00;52.40;;;;;;5029744;28;20460;-48
2022/07/22 10:04:16;;;;;;;11.00;8.23;;;24.00;52.60;;;;;;5038882;28;20813;-49
2022/07/22 10:06:46;;;;;;;9.00;7.23;;;24.00;52.40;;;;;;5043690;28;21012;-49
2022/07/22 10:09:22;;;;;;;13.00;8.77;;;24.00;52.20;;;;;;5027981;28;20448;-51
2022/07/22 10:11:52;;;;;;;11.00;7.93;;;24.00;52.00;;;;;;5029511;28;20510;-49
2022/07/22 10:14:23;;;;;;;11.00;8.70;;;24.00;52.00;;;;;;5014983;28;20471;-48
2022/07/22 10:16:55;;;;;;;12.90;9.10;;;24.00;52.00;;;;;;5021390;28;20485;-49
2022/07/22 10:19:24;;;;;;;8.77;7.97;;;24.00;52.00;;;;;;5022000;28;20532;-49
2022/07/22 10:21:53;;;;;;;9.03;7.63;;;24.00;52.10;;;;;;5044504;28;20463;-49
2022/07/22 10:24:23;;;;;;;9.23;7.90;;;24.00;52.20;;;;;;5019558;28;20441;-49
2022/07/22 10:27:03;;;;;;;8.90;8.00;;;24.00;52.40;;;;;;5022953;28;20506;-49
2022/07/22 10:29:33;;;;;;;12.43;8.43;;;24.00;52.40;;;;;;5017193;28;20437;-49
2022/07/22 10:32:27;;;;;;;8.67;7.83;;;24.10;52.60;;;;;;5009410;28;20531;-49
2022/07/22 10:35:24;;;;;;;8.50;7.60;;;24.10;52.60;;;;;;5015733;28;20809;-49
2022/07/22 10:38:02;;;;;;;9.40;8.20;;;24.00;52.50;;;;;;5004432;28;20475;-49
2022/07/22 10:40:32;;;;;;;9.23;8.23;;;24.00;52.80;;;;;;5015004;28;20455;-49
2022/07/22 10:43:10;;;;;;;10.53;9.27;;;24.00;52.70;;;;;;5013577;28;20432;-49
2022/07/22 10:45:46;;;;;;;8.67;7.23;;;24.00;52.70;;;;;;5012544;28;20480;-48
2022/07/22 10:48:16;;;;;;;11.13;9.90;;;23.90;52.70;;;;;;5027485;28;20589;-49
2022/07/22 10:50:50;;;;;;;13.57;9.60;;;24.00;54.00;;;;;;5009793;28;21474;-50
2022/07/22 10:53:21;;;;;;;14.00;9.20;;;24.00;52.70;;;;;;5011518;28;20440;-49
2022/07/22 10:56:13;;;;;;;10.70;9.50;;;24.00;52.90;;;;;;5020125;28;20883;-49
2022/07/22 10:58:43;;;;;;;13.07;9.73;;;24.00;53.00;;;;;;5015281;28;20851;-50
2022/07/22 11:01:14;;;;;;;12.77;10.40;;;23.90;52.90;;;;;;5024618;28;20506;-49
2022/07/22 11:03:45;;;;;;;12.20;9.80;;;23.90;52.50;;;;;;5012976;28;20444;-49
2022/07/22 11:06:19;;;;;;;13.17;11.60;;;23.90;52.80;;;;;;5018704;28;20518;-50
2022/07/22 11:08:50;;;;;;;11.37;9.97;;;23.90;52.80;;;;;;5017855;28;20927;-49
2022/07/22 11:11:32;;;;;;;11.07;9.77;;;24.00;52.90;;;;;;5022888;28;20560;-50
2022/07/22 11:14:02;;;;;;;12.40;10.80;;;23.90;52.70;;;;;;5011678;28;21016;-49
2022/07/22 11:16:33;;;;;;;13.40;11.10;;;24.00;52.60;;;;;;5019789;28;20556;-50
2022/07/22 11:19:03;;;;;;;10.57;9.10;;;23.90;52.50;;;;;;5018670;28;20445;-49
2022/07/22 11:21:32;;;;;;;13.10;10.40;;;23.90;52.50;;;;;;5032536;28;20480;-50
2022/07/22 11:24:09;;;;;;;10.97;9.50;;;24.00;52.60;;;;;;5009551;28;20817;-50
2022/07/22 11:26:44;;;;;;;12.40;11.10;;;23.90;52.60;;;;;;5009390;28;20548;-50
2022/07/22 11:29:17;;;;;;;11.20;10.00;;;24.00;52.70;;;;;;5013725;28;20481;-50
2022/07/22 11:31:45;;;;;;;13.23;10.63;;;24.00;52.70;;;;;;5009266;28;21188;-49
2022/07/22 11:34:16;;;;;;;11.67;10.47;;;23.90;52.70;;;;;;5013493;28;20480;-49
2022/07/22 11:36:46;;;;;;;13.80;11.40;;;24.00;52.90;;;;;;5020581;28;21168;-48
2022/07/22 11:39:20;;;;;;;12.60;10.00;;;23.90;52.60;;;;;;5019056;28;20976;-49
2022/07/22 11:41:53;;;;;;;14.27;12.60;;;23.90;52.50;;;;;;5019907;28;20885;-50
2022/07/22 11:44:23;;;;;;;16.40;13.27;;;23.90;52.80;;;;;;5009078;28;20451;-49
2022/07/22 11:46:58;;;;;;;13.60;11.57;;;23.90;52.60;;;;;;5018532;28;20452;-50
2022/07/22 11:49:29;;;;;;;13.43;10.70;;;23.90;52.60;;;;;;5021247;28;20450;-49
2022/07/22 11:51:58;;;;;;;16.10;12.40;;;23.90;52.70;;;;;;5007274;28;20964;-50
2022/07/22 11:54:26;;;;;;;17.27;11.63;;;23.90;52.90;;;;;;5010329;28;20547;-49
2022/07/22 11:56:56;;;;;;;12.17;10.70;;;23.90;52.90;;;;;;5009842;28;20572;-49
2022/07/22 11:59:25;;;;;;;12.23;10.70;;;23.90;52.90;;;;;;5010313;28;20449;-50
2022/07/22 12:01:53;;;;;;;13.47;11.67;;;23.90;52.80;;;;;;5020671;28;20550;-48
2022/07/22 12:04:24;;;;;;;12.63;10.80;;;23.90;52.80;;;;;;5013043;28;20444;-49
2022/07/22 12:06:54;;;;;;;14.23;12.50;;;23.90;52.70;;;;;;5008099;28;20487;-48
2022/07/22 12:09:25;;;;;;;13.10;10.90;;;23.90;52.90;;;;;;5006958;28;20503;-49
2022/07/22 12:11:58;;;;;;;12.70;11.23;;;23.90;52.90;;;;;;5026976;28;20464;-50
2022/07/22 12:14:28;;;;;;;15.23;12.50;;;24.00;53.00;;;;;;5026896;28;20947;-49
2022/07/22 12:16:59;;;;;;;15.00;12.40;;;23.90;52.90;;;;;;5029799;28;20991;-50
2022/07/22 12:19:31;;;;;;;17.27;12.67;;;23.90;52.90;;;;;;5027474;28;20443;-49
2022/07/22 12:22:01;;;;;;;13.43;12.03;;;24.00;53.00;;;;;;5026411;28;20467;-50
2022/07/22 12:24:33;;;;;;;15.43;12.27;;;24.00;53.00;;;;;;5027972;28;20439;-50
2022/07/22 12:27:05;;;;;;;14.37;12.43;;;23.90;52.90;;;;;;5030949;28;20888;-50
2022/07/22 12:29:43;;;;;;;13.33;11.70;;;23.90;53.00;;;;;;5028715;28;20444;-49
2022/07/22 12:32:16;;;;;;;16.77;13.30;;;23.90;52.90;;;;;;5021315;28;20565;-50
2022/07/22 12:34:46;;;;;;;16.50;13.50;;;24.00;53.20;;;;;;5040250;28;20478;-50
2022/07/22 12:37:18;;;;;;;13.27;11.30;;;23.90;52.90;;;;;;5024816;28;20475;-51
2022/07/22 12:39:57;;;;;;;15.03;13.43;;;23.90;53.00;;;;;;5032639;28;20435;-50
2022/07/22 12:42:28;;;;;;;15.80;13.40;;;23.90;52.90;;;;;;5024374;28;20986;-51
2022/07/22 12:45:03;;;;;;;13.90;12.50;;;23.90;52.90;;;;;;5023262;28;20449;-49
2022/07/22 12:47:44;;;;;;;14.80;12.40;;;23.90;52.90;;;;;;5027137;28;20475;-50
2022/07/22 12:50:24;;;;;;;13.50;11.67;;;24.00;53.00;;;;;;5029296;28;20538;-50
2022/07/22 12:52:54;;;;;;;15.07;13.60;;;24.00;53.20;;;;;;5028443;28;20966;-51
2022/07/22 12:55:44;;;;;;;15.50;13.20;;;24.00;53.20;;;;;;5030634;28;20466;-50
2022/07/22 12:58:14;;;;;;;17.00;12.90;;;23.90;53.00;;;;;;5019500;28;20998;-49
2022/07/22 13:00:46;;;;;;;19.40;13.60;;;23.90;53.00;;;;;;5020700;28;20461;-50
2022/07/22 13:03:14;;;;;;;13.97;12.60;;;24.00;53.40;;;;;;5031824;28;20995;-51
2022/07/22 13:05:42;;;;;;;13.43;11.30;;;23.90;52.90;;;;;;5029123;28;20498;-50
2022/07/22 13:08:11;;;;;;;16.63;14.10;;;23.90;52.90;;;;;;5027828;28;21017;-50
2022/07/22 13:10:40;;;;;;;15.07;13.50;;;24.00;53.00;;;;;;5025478;28;20445;-49
2022/07/22 13:13:09;;;;;;;15.20;13.67;;;24.00;53.30;;;;;;5030187;28;20877;-50